Time;durP1;ratioP1;P1;durP2;ratioP2;P2;SDS_P1;SDS_P2;PMS_P1;PMS_P2;Temp;Humidity;BMP_temperature;BMP_pressure;BME280_temperature;BME280_humidity;BME280_pressure;Samples;Min_cycle;Max_cycle;Signal;HPM_P1;HPM_P2
2023/05/31 00:00:29;;;;;;;14.30;7.45;;;;;;;;;;5053734;28;20424;-69
2023/05/31 00:02:55;;;;;;;10.35;7.18;;;;;;;;;;5085727;28;20036;-68
2023/05/31 00:05:21;;;;;;;10.68;6.90;;;;;;;;;;5053159;28;20037;-69
2023/05/31 00:07:48;;;;;;;13.18;7.55;;;;;;;;;;5053573;28;20021;-69
2023/05/31 00:10:14;;;;;;;15.13;7.70;;;;;;;;;;5053317;28;20477;-68
2023/05/31 00:12:40;;;;;;;13.15;6.72;;;;;;;;;;5053663;28;20017;-69
2023/05/31 00:15:07;;;;;;;9.57;7.05;;;;;;;;;;5053579;28;20075;-68
2023/05/31 00:17:33;;;;;;;12.63;7.47;;;;;;;;;;5053266;28;20047;-69
2023/05/31 00:20:00;;;;;;;9.95;6.95;;;;;;;;;;5053130;28;20028;-68
2023/05/31 00:22:26;;;;;;;15.25;7.60;;;;;;;;;;5053196;28;20031;-69
2023/05/31 00:24:52;;;;;;;11.65;6.63;;;;;;;;;;5052870;28;20417;-69
2023/05/31 00:27:19;;;;;;;10.55;8.32;;;;;;;;;;5053460;28;20029;-69
2023/05/31 00:29:45;;;;;;;11.07;7.60;;;;;;;;;;5053330;28;20017;-68
2023/05/31 00:32:11;;;;;;;13.18;7.68;;;;;;;;;;5051907;28;20039;-69
2023/05/31 00:34:38;;;;;;;12.52;7.30;;;;;;;;;;5052901;28;20039;-68
2023/05/31 00:37:04;;;;;;;10.60;7.10;;;;;;;;;;5051686;28;20021;-69
2023/05/31 00:39:30;;;;;;;12.75;7.30;;;;;;;;;;5053201;28;20035;-68
2023/05/31 00:41:57;;;;;;;9.70;7.32;;;;;;;;;;5052786;28;20017;-68
2023/05/31 00:44:23;;;;;;;10.38;7.72;;;;;;;;;;5053039;28;20081;-68
2023/05/31 00:46:49;;;;;;;10.27;7.00;;;;;;;;;;5052497;28;20497;-68
2023/05/31 00:49:16;;;;;;;12.43;7.25;;;;;;;;;;5052552;28;20039;-68
2023/05/31 00:51:42;;;;;;;11.30;7.25;;;;;;;;;;5052741;28;20025;-68
2023/05/31 00:54:10;;;;;;;18.83;7.55;;;;;;;;;;5052554;28;20019;-68
2023/05/31 00:56:36;;;;;;;16.13;7.90;;;;;;;;;;5052293;28;20039;-68
2023/05/31 00:59:02;;;;;;;13.35;8.63;;;;;;;;;;5052043;28;20021;-69
2023/05/31 01:01:32;;;;;;;11.85;8.07;;;;;;;;;;5052696;28;20029;-69
2023/05/31 01:03:59;;;;;;;11.87;8.10;;;;;;;;;;5052445;28;20029;-68
2023/05/31 01:06:30;;;;;;;14.57;7.80;;;;;;;;;;5052124;28;20287;-68
2023/05/31 01:08:56;;;;;;;18.23;7.82;;;;;;;;;;5052255;28;20021;-69
2023/05/31 01:11:27;;;;;;;10.30;8.00;;;;;;;;;;5052439;28;20047;-68
2023/05/31 01:14:01;;;;;;;10.55;7.57;;;;;;;;;;5052804;28;20032;-69
2023/05/31 01:16:31;;;;;;;8.95;7.57;;;;;;;;;;5052325;28;20025;-68
2023/05/31 01:19:02;;;;;;;14.63;8.00;;;;;;;;;;5051860;28;20017;-68
2023/05/31 01:21:46;;;;;;;15.02;8.75;;;;;;;;;;5052170;28;20025;-68
2023/05/31 01:24:31;;;;;;;11.73;8.35;;;;;;;;;;5051995;28;20041;-69
2023/05/31 01:27:00;;;;;;;12.48;8.43;;;;;;;;;;5051999;28;20045;-69
2023/05/31 01:29:27;;;;;;;11.82;7.95;;;;;;;;;;5052138;28;20492;-69
2023/05/31 01:31:55;;;;;;;11.07;8.15;;;;;;;;;;5051758;28;20043;-69
2023/05/31 01:34:22;;;;;;;10.57;7.85;;;;;;;;;;5052363;28;20020;-69
2023/05/31 01:36:48;;;;;;;17.75;8.45;;;;;;;;;;5052085;28;20035;-68
2023/05/31 01:39:15;;;;;;;16.17;8.35;;;;;;;;;;5051980;28;20412;-68
2023/05/31 01:41:43;;;;;;;17.95;9.57;;;;;;;;;;5052029;28;20013;-68
2023/05/31 01:44:09;;;;;;;15.48;10.15;;;;;;;;;;5051791;28;20032;-68
2023/05/31 01:46:36;;;;;;;16.38;9.82;;;;;;;;;;5051630;28;20456;-68
2023/05/31 01:49:03;;;;;;;91.47;10.98;;;;;;;;;;5051860;28;20021;-69
2023/05/31 01:51:30;;;;;;;14.60;10.55;;;;;;;;;;5050626;28;20037;-68
2023/05/31 01:53:57;;;;;;;33.28;10.18;;;;;;;;;;5051948;28;20017;-68
2023/05/31 01:56:25;;;;;;;13.52;9.70;;;;;;;;;;5051682;28;20403;-68
2023/05/31 01:58:51;;;;;;;57.72;10.57;;;;;;;;;;5051817;28;20385;-69
2023/05/31 02:01:18;;;;;;;41.97;10.15;;;;;;;;;;5051598;28;20055;-68
2023/05/31 02:03:44;;;;;;;173.73;11.52;;;;;;;;;;5052065;28;20025;-68
2023/05/31 02:06:14;;;;;;;68.15;10.00;;;;;;;;;;5051659;28;20545;-68
2023/05/31 02:08:40;;;;;;;75.70;9.95;;;;;;;;;;5052955;28;20013;-68
2023/05/31 02:11:07;;;;;;;76.10;10.77;;;;;;;;;;5055702;28;20025;-68
2023/05/31 02:13:35;;;;;;;39.47;10.00;;;;;;;;;;5054354;28;20096;-69
2023/05/31 02:16:03;;;;;;;10.50;8.57;;;;;;;;;;5055478;28;20401;-68
2023/05/31 02:18:30;;;;;;;21.10;9.48;;;;;;;;;;5055744;28;20039;-68
2023/05/31 02:20:56;;;;;;;29.80;9.52;;;;;;;;;;5055468;28;20021;-69
2023/05/31 02:23:22;;;;;;;14.70;9.20;;;;;;;;;;5055339;28;20059;-68
2023/05/31 02:25:49;;;;;;;12.60;8.60;;;;;;;;;;5055374;28;20033;-68
2023/05/31 02:28:16;;;;;;;20.95;9.52;;;;;;;;;;5055298;28;20021;-68
2023/05/31 02:30:42;;;;;;;10.98;8.75;;;;;;;;;;5054257;28;20036;-68
2023/05/31 02:33:09;;;;;;;12.75;9.02;;;;;;;;;;5055596;28;20027;-68
2023/05/31 02:35:35;;;;;;;14.35;9.15;;;;;;;;;;5055206;28;20035;-68
2023/05/31 02:38:02;;;;;;;13.50;8.63;;;;;;;;;;5055511;28;20028;-68
2023/05/31 02:40:28;;;;;;;12.07;9.00;;;;;;;;;;5055108;28;20021;-68
2023/05/31 02:42:54;;;;;;;14.65;9.30;;;;;;;;;;5055146;28;20018;-68
2023/05/31 02:45:21;;;;;;;18.08;8.00;;;;;;;;;;5054755;28;20037;-68
2023/05/31 02:47:47;;;;;;;10.18;7.78;;;;;;;;;;5055218;28;20041;-68
2023/05/31 02:50:13;;;;;;;16.23;8.77;;;;;;;;;;5055169;28;20013;-68
2023/05/31 02:52:40;;;;;;;14.55;8.68;;;;;;;;;;5055121;28;20021;-68
2023/05/31 02:55:06;;;;;;;21.38;8.90;;;;;;;;;;5054806;28;20027;-68
2023/05/31 02:57:33;;;;;;;17.33;9.20;;;;;;;;;;5054612;28;20029;-69
2023/05/31 03:00:08;;;;;;;21.10;8.38;;;;;;;;;;5054531;28;20380;-69
2023/05/31 03:02:35;;;;;;;16.42;8.18;;;;;;;;;;5054788;28;20542;-69
2023/05/31 03:05:03;;;;;;;19.50;8.25;;;;;;;;;;5054528;28;20025;-68
2023/05/31 03:07:30;;;;;;;17.92;7.75;;;;;;;;;;5054652;28;20615;-68
2023/05/31 03:09:56;;;;;;;9.75;7.55;;;;;;;;;;5054866;28;20020;-69
2023/05/31 03:12:22;;;;;;;9.32;7.32;;;;;;;;;;5054566;28;20507;-69
2023/05/31 03:14:49;;;;;;;10.23;7.43;;;;;;;;;;5054509;28;20025;-68
2023/05/31 03:17:15;;;;;;;10.18;7.70;;;;;;;;;;5054474;28;20089;-68
2023/05/31 03:19:42;;;;;;;10.05;7.65;;;;;;;;;;5054544;28;20051;-68
2023/05/31 03:22:08;;;;;;;17.30;7.90;;;;;;;;;;5052594;28;20078;-69
2023/05/31 03:24:35;;;;;;;11.43;8.38;;;;;;;;;;5054144;28;20041;-68
2023/05/31 03:27:01;;;;;;;13.07;8.52;;;;;;;;;;5054192;28;20047;-68
2023/05/31 03:29:28;;;;;;;14.65;8.05;;;;;;;;;;5053995;28;20066;-69
2023/05/31 03:31:54;;;;;;;12.50;7.82;;;;;;;;;;5054311;28;20385;-68
2023/05/31 03:34:22;;;;;;;10.57;7.93;;;;;;;;;;5054143;28;20035;-68
2023/05/31 03:36:49;;;;;;;18.65;8.63;;;;;;;;;;5053989;28;20035;-68
2023/05/31 03:39:15;;;;;;;9.65;7.50;;;;;;;;;;5054227;28;20032;-69
2023/05/31 03:41:41;;;;;;;11.00;7.55;;;;;;;;;;5053931;28;20025;-68
2023/05/31 03:44:07;;;;;;;11.43;7.55;;;;;;;;;;5054100;28;20029;-68
2023/05/31 03:46:34;;;;;;;10.43;8.18;;;;;;;;;;5053934;28;20029;-68
2023/05/31 03:49:01;;;;;;;10.13;7.93;;;;;;;;;;5053815;28;20028;-68
2023/05/31 03:51:27;;;;;;;11.63;8.07;;;;;;;;;;5054140;28;20050;-69
2023/05/31 03:53:53;;;;;;;12.18;8.55;;;;;;;;;;5053827;28;20025;-68
2023/05/31 03:56:20;;;;;;;13.25;7.75;;;;;;;;;;5053724;28;20021;-68
2023/05/31 03:58:46;;;;;;;11.23;8.38;;;;;;;;;;5053598;28;20057;-68
2023/05/31 04:01:13;;;;;;;15.70;8.13;;;;;;;;;;5053563;28;20493;-69
2023/05/31 04:03:39;;;;;;;12.52;8.73;;;;;;;;;;5053586;28;20024;-68
2023/05/31 04:06:06;;;;;;;13.65;8.55;;;;;;;;;;5053346;28;20045;-68
2023/05/31 04:08:32;;;;;;;13.00;8.60;;;;;;;;;;5053602;28;20047;-68
2023/05/31 04:10:59;;;;;;;11.70;8.07;;;;;;;;;;5053520;28;20481;-68
2023/05/31 04:13:25;;;;;;;10.02;7.82;;;;;;;;;;5053216;28;20058;-68
2023/05/31 04:15:51;;;;;;;11.52;8.20;;;;;;;;;;5053289;28;20029;-68
2023/05/31 04:18:18;;;;;;;12.30;8.20;;;;;;;;;;5053279;28;20017;-68
2023/05/31 04:20:44;;;;;;;9.98;8.18;;;;;;;;;;5053237;28;20024;-68
2023/05/31 04:23:10;;;;;;;12.27;7.90;;;;;;;;;;5053129;28;20037;-68
2023/05/31 04:25:37;;;;;;;13.80;8.70;;;;;;;;;;5053046;28;20044;-68
2023/05/31 04:28:06;;;;;;;10.93;8.30;;;;;;;;;;5053035;28;20017;-68
2023/05/31 04:30:33;;;;;;;12.43;8.10;;;;;;;;;;5053327;28;20017;-68
2023/05/31 04:32:59;;;;;;;12.15;8.00;;;;;;;;;;5053064;28;20397;-68
2023/05/31 04:35:28;;;;;;;12.43;7.70;;;;;;;;;;5052961;28;20031;-68
2023/05/31 04:37:58;;;;;;;13.73;7.95;;;;;;;;;;5053061;28;20031;-68
2023/05/31 04:40:31;;;;;;;10.53;7.73;;;;;;;;;;5084897;28;20047;-68
2023/05/31 04:43:01;;;;;;;12.07;8.15;;;;;;;;;;5052696;28;20278;-68
2023/05/31 04:45:27;;;;;;;9.25;7.07;;;;;;;;;;5052997;28;20037;-68
2023/05/31 04:47:55;;;;;;;17.08;9.02;;;;;;;;;;5052740;28;20021;-68
2023/05/31 04:50:21;;;;;;;10.63;7.68;;;;;;;;;;5052697;28;20025;-68
2023/05/31 04:52:48;;;;;;;9.32;7.30;;;;;;;;;;5052807;28;20025;-68
2023/05/31 04:55:15;;;;;;;10.80;7.28;;;;;;;;;;5052256;28;20021;-68
2023/05/31 04:57:41;;;;;;;12.80;7.60;;;;;;;;;;5052456;28;20017;-68
2023/05/31 05:00:09;;;;;;;9.95;7.70;;;;;;;;;;5052667;28;20020;-68
2023/05/31 05:02:35;;;;;;;12.52;7.97;;;;;;;;;;5052651;28;20029;-68
2023/05/31 05:05:03;;;;;;;10.85;6.97;;;;;;;;;;5052355;28;20027;-68
2023/05/31 05:07:30;;;;;;;8.75;6.93;;;;;;;;;;5052353;28;20481;-68
2023/05/31 05:09:56;;;;;;;8.50;6.65;;;;;;;;;;5052091;28;20029;-68
2023/05/31 05:12:22;;;;;;;18.13;7.55;;;;;;;;;;5052176;28;20035;-68
2023/05/31 05:14:49;;;;;;;8.82;6.82;;;;;;;;;;5052245;28;20031;-69
2023/05/31 05:17:15;;;;;;;11.63;7.18;;;;;;;;;;5052275;28;20503;-68
2023/05/31 05:19:41;;;;;;;10.82;7.82;;;;;;;;;;5052422;28;20021;-68
2023/05/31 05:22:08;;;;;;;13.18;7.57;;;;;;;;;;5049616;28;20417;-68
2023/05/31 05:24:34;;;;;;;9.65;7.13;;;;;;;;;;5051031;28;20079;-68
2023/05/31 05:27:00;;;;;;;9.77;7.10;;;;;;;;;;5051751;28;20048;-68
2023/05/31 05:29:27;;;;;;;14.75;7.20;;;;;;;;;;5051237;28;20504;-68
2023/05/31 05:31:53;;;;;;;8.27;6.60;;;;;;;;;;5051457;28;20481;-68
2023/05/31 05:34:20;;;;;;;9.98;6.82;;;;;;;;;;5051163;28;20470;-70
2023/05/31 05:36:46;;;;;;;8.63;6.65;;;;;;;;;;5051635;28;20025;-69
2023/05/31 05:39:13;;;;;;;13.38;6.85;;;;;;;;;;5051532;28;20029;-68
2023/05/31 05:41:39;;;;;;;9.20;6.82;;;;;;;;;;5052362;28;20021;-68
2023/05/31 05:44:06;;;;;;;10.30;6.70;;;;;;;;;;5051139;28;20047;-69
2023/05/31 05:46:32;;;;;;;11.98;7.25;;;;;;;;;;5051686;28;20029;-68
2023/05/31 05:48:58;;;;;;;13.93;7.30;;;;;;;;;;5051767;28;20035;-68
2023/05/31 05:51:25;;;;;;;10.07;7.05;;;;;;;;;;5051671;28;20074;-68
2023/05/31 05:53:51;;;;;;;12.10;7.22;;;;;;;;;;5051187;28;20031;-69
2023/05/31 05:56:18;;;;;;;15.00;7.18;;;;;;;;;;5051551;28;20027;-68
2023/05/31 05:58:48;;;;;;;10.00;7.22;;;;;;;;;;5051338;28;20376;-68
2023/05/31 06:01:19;;;;;;;9.07;6.60;;;;;;;;;;5051560;28;20028;-68
2023/05/31 06:03:48;;;;;;;9.75;6.90;;;;;;;;;;5051642;28;20021;-68
2023/05/31 06:06:16;;;;;;;12.27;6.93;;;;;;;;;;5049979;28;20037;-68
2023/05/31 06:08:43;;;;;;;8.23;6.65;;;;;;;;;;5050550;28;20206;-68
2023/05/31 06:11:10;;;;;;;12.65;6.65;;;;;;;;;;5047429;28;20033;-68
2023/05/31 06:13:36;;;;;;;11.20;6.35;;;;;;;;;;5050734;28;20032;-68
2023/05/31 06:16:04;;;;;;;11.18;7.13;;;;;;;;;;5050746;28;20029;-68
2023/05/31 06:18:31;;;;;;;12.07;6.80;;;;;;;;;;5051121;28;20029;-68
2023/05/31 06:20:57;;;;;;;12.80;6.68;;;;;;;;;;5050958;28;20029;-68
2023/05/31 06:23:23;;;;;;;10.73;7.50;;;;;;;;;;5050038;28;20049;-68
2023/05/31 06:25:51;;;;;;;8.75;6.68;;;;;;;;;;5049449;28;20045;-69
2023/05/31 06:28:17;;;;;;;10.65;7.13;;;;;;;;;;5051186;28;20032;-68
2023/05/31 06:30:43;;;;;;;11.35;6.30;;;;;;;;;;5051515;28;20039;-68
2023/05/31 06:33:10;;;;;;;12.27;7.32;;;;;;;;;;5051084;28;20382;-68
2023/05/31 06:35:36;;;;;;;8.95;7.10;;;;;;;;;;5050132;28;20366;-68
2023/05/31 06:38:03;;;;;;;10.38;7.38;;;;;;;;;;5050916;28;20029;-68
2023/05/31 06:40:30;;;;;;;9.98;7.15;;;;;;;;;;5051097;28;20034;-68
2023/05/31 06:42:56;;;;;;;10.75;7.43;;;;;;;;;;5050822;28;20019;-68
2023/05/31 06:45:24;;;;;;;10.00;7.32;;;;;;;;;;5050715;28;20036;-68
2023/05/31 06:47:51;;;;;;;9.32;6.88;;;;;;;;;;5050902;28;20017;-68
2023/05/31 06:50:17;;;;;;;9.15;6.93;;;;;;;;;;5046685;28;20017;-68
2023/05/31 06:52:43;;;;;;;10.18;6.20;;;;;;;;;;5050431;28;20036;-68
2023/05/31 06:55:10;;;;;;;10.80;6.65;;;;;;;;;;5051329;28;20025;-68
2023/05/31 06:57:36;;;;;;;9.85;6.43;;;;;;;;;;5054451;28;20029;-68
2023/05/31 07:00:03;;;;;;;10.32;6.47;;;;;;;;;;5054569;28;20032;-69
2023/05/31 07:02:30;;;;;;;6.88;5.70;;;;;;;;;;5054069;28;20082;-68
2023/05/31 07:04:56;;;;;;;8.30;6.35;;;;;;;;;;5054510;28;20021;-68
2023/05/31 07:07:23;;;;;;;8.77;6.22;;;;;;;;;;5054312;28;20037;-68
2023/05/31 07:09:51;;;;;;;8.32;6.03;;;;;;;;;;5054149;28;20031;-68
2023/05/31 07:12:17;;;;;;;8.48;6.03;;;;;;;;;;5054128;28;20037;-69
2023/05/31 07:14:43;;;;;;;13.85;6.07;;;;;;;;;;5053580;28;20025;-69
2023/05/31 07:17:10;;;;;;;7.65;5.85;;;;;;;;;;5053605;28;20428;-69
2023/05/31 07:19:46;;;;;;;7.30;5.75;;;;;;;;;;5053947;28;20017;-68
2023/05/31 07:22:16;;;;;;;8.63;6.07;;;;;;;;;;5052713;28;20029;-69
2023/05/31 07:24:43;;;;;;;9.07;5.97;;;;;;;;;;5053146;28;20101;-69
2023/05/31 07:27:10;;;;;;;7.25;5.88;;;;;;;;;;5052657;28;20424;-69
2023/05/31 07:29:36;;;;;;;7.22;5.80;;;;;;;;;;5053206;28;20501;-69
2023/05/31 07:32:03;;;;;;;8.48;5.78;;;;;;;;;;5053383;28;20039;-69
2023/05/31 07:34:29;;;;;;;6.95;5.95;;;;;;;;;;5053119;28;20507;-69
2023/05/31 07:36:55;;;;;;;8.32;5.78;;;;;;;;;;5053786;28;20032;-69
2023/05/31 07:39:22;;;;;;;6.50;5.68;;;;;;;;;;5053368;28;20477;-68
2023/05/31 07:41:48;;;;;;;7.90;5.85;;;;;;;;;;5053042;28;20032;-69
2023/05/31 07:44:18;;;;;;;7.72;5.53;;;;;;;;;;5053292;28;20382;-69
2023/05/31 07:46:44;;;;;;;8.07;5.67;;;;;;;;;;5053145;28;20082;-69
2023/05/31 07:49:11;;;;;;;8.23;5.78;;;;;;;;;;5053503;28;20309;-69
2023/05/31 07:51:38;;;;;;;9.40;6.40;;;;;;;;;;5053108;28;20028;-69
2023/05/31 07:54:05;;;;;;;7.70;5.40;;;;;;;;;;5053547;28;20040;-69
2023/05/31 07:56:31;;;;;;;10.27;6.28;;;;;;;;;;5053206;28;20367;-69
2023/05/31 07:58:58;;;;;;;7.63;6.20;;;;;;;;;;5052347;28;20031;-69
2023/05/31 08:01:24;;;;;;;8.95;7.05;;;;;;;;;;5053155;28;20029;-69
2023/05/31 08:03:50;;;;;;;10.02;6.55;;;;;;;;;;5052377;28;20029;-68
2023/05/31 08:06:17;;;;;;;11.13;6.82;;;;;;;;;;5052103;28;20078;-68
2023/05/31 08:08:44;;;;;;;8.55;6.20;;;;;;;;;;5052692;28;20025;-69
2023/05/31 08:11:11;;;;;;;8.73;6.95;;;;;;;;;;5052730;28;20021;-68
2023/05/31 08:13:37;;;;;;;8.73;6.50;;;;;;;;;;5052550;28;20376;-68
2023/05/31 08:16:04;;;;;;;10.85;7.18;;;;;;;;;;5052921;28;20028;-68
2023/05/31 08:18:31;;;;;;;9.55;6.78;;;;;;;;;;5052805;28;20022;-68
2023/05/31 08:20:58;;;;;;;9.13;6.45;;;;;;;;;;5052678;28;20031;-69
2023/05/31 08:23:24;;;;;;;9.50;6.65;;;;;;;;;;5052552;28;20033;-69
2023/05/31 08:25:53;;;;;;;10.25;6.25;;;;;;;;;;5055937;28;20040;-69
2023/05/31 08:28:19;;;;;;;10.15;5.70;;;;;;;;;;5071401;28;20590;-68
2023/05/31 08:30:45;;;;;;;8.60;6.25;;;;;;;;;;5072162;28;20032;-69
2023/05/31 08:33:12;;;;;;;6.65;5.90;;;;;;;;;;5071124;28;20034;-69
2023/05/31 08:35:39;;;;;;;6.72;5.50;;;;;;;;;;5071976;28;20511;-69
2023/05/31 08:38:05;;;;;;;7.25;5.50;;;;;;;;;;5070354;28;20024;-69
2023/05/31 08:40:32;;;;;;;7.60;5.88;;;;;;;;;;5048493;28;20029;-70
2023/05/31 08:43:15;;;;;;;7.93;5.75;;;;;;;;;;5052304;28;20392;-70
2023/05/31 08:45:43;;;;;;;9.93;6.30;;;;;;;;;;5052267;28;20029;-69
2023/05/31 08:48:20;;;;;;;9.15;5.88;;;;;;;;;;5052046;28;20043;-69
2023/05/31 08:50:47;;;;;;;8.52;5.72;;;;;;;;;;5052453;28;20029;-70
2023/05/31 08:53:15;;;;;;;10.05;5.78;;;;;;;;;;5052045;28;20037;-70
2023/05/31 08:55:42;;;;;;;7.30;5.90;;;;;;;;;;5053296;28;20024;-69
2023/05/31 08:58:10;;;;;;;6.63;5.85;;;;;;;;;;5054223;28;20017;-68
2023/05/31 09:00:37;;;;;;;8.75;5.60;;;;;;;;;;5052053;28;20035;-69
2023/05/31 09:03:06;;;;;;;7.28;5.75;;;;;;;;;;5071605;28;20039;-69
2023/05/31 09:05:32;;;;;;;7.43;5.53;;;;;;;;;;5072175;28;20036;-68
2023/05/31 09:08:00;;;;;;;7.70;5.38;;;;;;;;;;5058134;28;20025;-68
2023/05/31 09:10:28;;;;;;;6.15;5.22;;;;;;;;;;5049892;28;20032;-69
2023/05/31 09:12:55;;;;;;;6.88;5.40;;;;;;;;;;5050122;28;20031;-70
2023/05/31 09:15:25;;;;;;;6.65;5.72;;;;;;;;;;5051542;28;20424;-67
2023/05/31 09:17:51;;;;;;;12.10;5.72;;;;;;;;;;5052362;28;20027;-68
2023/05/31 09:20:21;;;;;;;7.70;5.57;;;;;;;;;;5050790;28;20482;-68
2023/05/31 09:22:50;;;;;;;6.95;4.85;;;;;;;;;;5051568;28;20037;-68
2023/05/31 09:25:17;;;;;;;10.00;5.13;;;;;;;;;;5051419;28;20025;-69
2023/05/31 09:27:43;;;;;;;8.40;5.90;;;;;;;;;;5051705;28;20067;-68
2023/05/31 09:30:11;;;;;;;7.00;5.28;;;;;;;;;;5051751;28;20025;-68
2023/05/31 09:32:53;;;;;;;11.13;5.05;;;;;;;;;;5049874;28;20039;-70
2023/05/31 09:35:23;;;;;;;8.35;4.80;;;;;;;;;;5045932;28;20031;-69
2023/05/31 09:37:50;;;;;;;8.55;4.82;;;;;;;;;;5067651;28;20020;-70
2023/05/31 09:40:24;;;;;;;4.82;4.43;;;;;;;;;;5071666;28;20025;-70
2023/05/31 09:42:50;;;;;;;6.97;5.00;;;;;;;;;;5069011;28;20034;-70
2023/05/31 09:45:17;;;;;;;9.73;5.00;;;;;;;;;;5049730;28;20040;-68
2023/05/31 09:47:44;;;;;;;6.43;5.00;;;;;;;;;;5050349;28;20037;-68
2023/05/31 09:50:17;;;;;;;7.65;5.47;;;;;;;;;;5050863;28;20017;-70
2023/05/31 09:52:43;;;;;;;6.28;5.03;;;;;;;;;;5051122;28;20032;-70
2023/05/31 09:55:11;;;;;;;7.30;4.80;;;;;;;;;;5051532;28;20036;-70
2023/05/31 09:57:43;;;;;;;6.68;4.63;;;;;;;;;;5050960;28;20021;-69
2023/05/31 10:00:16;;;;;;;7.97;4.70;;;;;;;;;;5049452;28;20021;-69
2023/05/31 10:02:49;;;;;;;6.45;4.85;;;;;;;;;;5051178;28;20037;-70
2023/05/31 10:05:16;;;;;;;5.07;4.07;;;;;;;;;;5049513;28;21447;-69
2023/05/31 10:07:43;;;;;;;5.78;4.45;;;;;;;;;;5052073;28;20398;-70
2023/05/31 10:10:10;;;;;;;7.25;3.97;;;;;;;;;;5051336;28;20028;-71
2023/05/31 10:12:54;;;;;;;6.22;4.50;;;;;;;;;;5051061;28;20493;-71
2023/05/31 10:15:27;;;;;;;7.63;4.10;;;;;;;;;;5051091;28;20485;-70
2023/05/31 10:18:00;;;;;;;8.70;4.80;;;;;;;;;;5051469;28;20032;-70
2023/05/31 10:20:30;;;;;;;7.50;4.38;;;;;;;;;;5051094;28;20458;-70
2023/05/31 10:23:02;;;;;;;4.47;4.07;;;;;;;;;;5050800;28;20489;-70
2023/05/31 10:25:34;;;;;;;5.15;4.47;;;;;;;;;;5048818;28;20127;-70
2023/05/31 10:28:01;;;;;;;5.68;4.47;;;;;;;;;;5050768;28;20505;-70
2023/05/31 10:30:29;;;;;;;8.35;4.72;;;;;;;;;;5053188;28;20037;-70
2023/05/31 10:33:00;;;;;;;5.60;4.15;;;;;;;;;;5054839;28;20496;-71
2023/05/31 10:35:26;;;;;;;4.50;4.10;;;;;;;;;;5054822;28;20031;-70
2023/05/31 10:37:53;;;;;;;5.68;4.43;;;;;;;;;;5054970;28;20014;-70
2023/05/31 10:40:24;;;;;;;5.32;4.40;;;;;;;;;;5054744;28;20501;-70
2023/05/31 10:43:14;;;;;;;5.15;4.28;;;;;;;;;;5054459;28;20029;-70
2023/05/31 10:45:43;;;;;;;5.10;4.15;;;;;;;;;;5049563;28;20061;-69
2023/05/31 10:48:15;;;;;;;4.30;3.90;;;;;;;;;;5054692;28;20009;-70
2023/05/31 10:50:53;;;;;;;5.35;4.30;;;;;;;;;;5054748;28;20496;-70
2023/05/31 10:53:20;;;;;;;6.23;4.67;;;;;;;;;;5054877;28;20032;-70
2023/05/31 10:55:47;;;;;;;4.60;3.95;;;;;;;;;;5054441;28;20021;-70
2023/05/31 10:58:30;;;;;;;7.18;4.28;;;;;;;;;;5054245;28;20178;-70
2023/05/31 11:00:57;;;;;;;5.07;3.95;;;;;;;;;;5054026;28;20388;-70
2023/05/31 11:03:24;;;;;;;7.45;4.35;;;;;;;;;;5054883;28;20021;-71
2023/05/31 11:05:57;;;;;;;5.78;4.40;;;;;;;;;;5054200;28;20379;-70
2023/05/31 11:08:24;;;;;;;7.78;4.60;;;;;;;;;;5054059;28;20039;-69
2023/05/31 11:10:51;;;;;;;9.73;4.85;;;;;;;;;;5054007;28;20025;-69
2023/05/31 11:13:18;;;;;;;5.43;4.30;;;;;;;;;;5053997;28;20043;-69
2023/05/31 11:15:45;;;;;;;5.72;4.88;;;;;;;;;;5054234;28;20021;-69
2023/05/31 11:18:16;;;;;;;7.63;4.80;;;;;;;;;;5054045;28;20025;-70
2023/05/31 11:20:42;;;;;;;6.60;5.07;;;;;;;;;;5054425;28;20031;-70
2023/05/31 11:23:24;;;;;;;8.15;5.15;;;;;;;;;;5054077;28;20055;-69
2023/05/31 11:26:29;;;;;;;6.57;4.72;;;;;;;;;;5054027;28;20021;-69
2023/05/31 11:28:57;;;;;;;5.30;4.80;;;;;;;;;;5032047;28;20048;-70
2023/05/31 11:31:42;;;;;;;5.97;4.50;;;;;;;;;;5031818;28;20024;-69
2023/05/31 11:34:18;;;;;;;6.18;5.07;;;;;;;;;;5031692;28;20529;-70
2023/05/31 11:36:46;;;;;;;6.85;4.75;;;;;;;;;;5031644;28;20128;-70
2023/05/31 11:39:12;;;;;;;5.55;4.53;;;;;;;;;;5031450;28;20412;-69
2023/05/31 11:41:39;;;;;;;5.22;4.38;;;;;;;;;;5042009;28;20033;-70
2023/05/31 11:44:11;;;;;;;6.40;4.90;;;;;;;;;;5050245;28;20021;-70
2023/05/31 11:46:40;;;;;;;6.13;4.95;;;;;;;;;;5051623;28;20055;-69
2023/05/31 11:49:09;;;;;;;5.88;4.97;;;;;;;;;;5050011;28;20027;-69
2023/05/31 11:51:36;;;;;;;8.50;5.05;;;;;;;;;;5051184;28;20049;-70
2023/05/31 11:54:03;;;;;;;5.68;5.03;;;;;;;;;;5051528;28;20035;-69
2023/05/31 11:56:30;;;;;;;7.20;5.20;;;;;;;;;;5051098;28;20044;-69
2023/05/31 11:58:58;;;;;;;8.52;5.50;;;;;;;;;;5051340;28;20037;-69
2023/05/31 12:01:24;;;;;;;7.95;5.97;;;;;;;;;;5053256;28;20467;-69
2023/05/31 12:04:00;;;;;;;9.85;5.20;;;;;;;;;;5053157;28;20092;-69
2023/05/31 12:06:26;;;;;;;11.77;5.85;;;;;;;;;;5053847;28;20051;-69
2023/05/31 12:08:54;;;;;;;20.75;7.70;;;;;;;;;;5053124;28;20021;-69
2023/05/31 12:11:23;;;;;;;16.63;7.68;;;;;;;;;;5052958;28;20025;-69
2023/05/31 12:13:50;;;;;;;16.35;7.25;;;;;;;;;;5052937;28;20023;-69
2023/05/31 12:16:16;;;;;;;14.57;6.57;;;;;;;;;;5053197;28;20039;-69
2023/05/31 12:18:42;;;;;;;12.50;7.38;;;;;;;;;;5052999;28;20017;-70
2023/05/31 12:21:11;;;;;;;10.77;6.60;;;;;;;;;;5052697;28;20032;-69
2023/05/31 12:23:54;;;;;;;9.68;7.00;;;;;;;;;;5052733;28;20505;-69
2023/05/31 12:26:21;;;;;;;10.68;6.45;;;;;;;;;;5051639;28;20047;-69
2023/05/31 12:28:47;;;;;;;14.25;6.88;;;;;;;;;;5052921;28;20017;-69
2023/05/31 12:31:22;;;;;;;10.80;6.18;;;;;;;;;;5052886;28;20033;-69
2023/05/31 12:33:52;;;;;;;17.10;7.82;;;;;;;;;;5052717;28;20078;-69
2023/05/31 12:36:19;;;;;;;17.83;7.25;;;;;;;;;;5052590;28;20028;-69
2023/05/31 12:38:45;;;;;;;10.50;7.05;;;;;;;;;;5052275;28;20432;-69
2023/05/31 12:41:12;;;;;;;15.88;7.75;;;;;;;;;;5052633;28;20462;-69
2023/05/31 12:43:40;;;;;;;14.13;7.57;;;;;;;;;;5052549;28;20070;-69
2023/05/31 12:46:06;;;;;;;14.48;7.47;;;;;;;;;;5052532;28;20074;-69
2023/05/31 12:48:33;;;;;;;18.02;7.47;;;;;;;;;;5052509;28;20023;-69
2023/05/31 12:50:59;;;;;;;12.45;7.57;;;;;;;;;;5052547;28;20033;-69
2023/05/31 12:53:26;;;;;;;14.25;7.35;;;;;;;;;;5051138;28;20017;-69
2023/05/31 12:55:52;;;;;;;9.68;6.25;;;;;;;;;;5052176;28;20021;-69
2023/05/31 12:58:18;;;;;;;8.00;5.75;;;;;;;;;;5052428;28;20029;-69
2023/05/31 13:00:45;;;;;;;8.73;6.30;;;;;;;;;;5052695;28;20017;-69
2023/05/31 13:03:13;;;;;;;9.13;5.07;;;;;;;;;;5052779;28;20035;-69
2023/05/31 13:05:40;;;;;;;8.20;5.72;;;;;;;;;;5052425;28;20428;-69
2023/05/31 13:08:06;;;;;;;9.10;5.32;;;;;;;;;;5052314;28;20033;-69
2023/05/31 13:10:34;;;;;;;8.90;5.18;;;;;;;;;;5052420;28;20027;-69
2023/05/31 13:13:02;;;;;;;9.20;5.47;;;;;;;;;;5050467;28;20021;-69
2023/05/31 13:15:28;;;;;;;8.90;6.00;;;;;;;;;;5051059;28;20029;-69
2023/05/31 13:17:55;;;;;;;9.70;6.03;;;;;;;;;;5051705;28;20481;-69
2023/05/31 13:20:21;;;;;;;9.70;5.65;;;;;;;;;;5052113;28;20029;-69
2023/05/31 13:22:48;;;;;;;8.43;5.75;;;;;;;;;;5051529;28;20424;-69
2023/05/31 13:25:14;;;;;;;7.47;5.95;;;;;;;;;;5051984;28;20031;-69
2023/05/31 13:27:41;;;;;;;9.30;6.25;;;;;;;;;;5051618;28;20820;-70
2023/05/31 13:30:08;;;;;;;10.02;5.25;;;;;;;;;;5052093;28;20017;-69
2023/05/31 13:32:34;;;;;;;9.07;5.95;;;;;;;;;;5052099;28;20025;-69
2023/05/31 13:35:00;;;;;;;16.48;6.45;;;;;;;;;;5051842;28;20023;-69
2023/05/31 13:37:27;;;;;;;12.30;6.93;;;;;;;;;;5051743;28;20037;-69
2023/05/31 13:39:55;;;;;;;10.98;6.90;;;;;;;;;;5051684;28;20036;-69
2023/05/31 13:42:21;;;;;;;9.90;7.22;;;;;;;;;;5052148;28;20029;-69
2023/05/31 13:44:47;;;;;;;10.50;6.82;;;;;;;;;;5051569;28;20025;-69
2023/05/31 13:47:14;;;;;;;11.93;6.25;;;;;;;;;;5050650;28;20043;-69
2023/05/31 13:49:40;;;;;;;12.40;6.00;;;;;;;;;;5051575;28;20033;-69
2023/05/31 13:52:08;;;;;;;9.40;6.38;;;;;;;;;;5051261;28;20025;-69
2023/05/31 13:54:34;;;;;;;8.50;5.60;;;;;;;;;;5051304;28;20035;-69
2023/05/31 13:57:01;;;;;;;8.43;6.32;;;;;;;;;;5050762;28;20481;-70
2023/05/31 13:59:27;;;;;;;8.65;6.80;;;;;;;;;;5051302;28;20025;-69
2023/05/31 14:01:54;;;;;;;7.75;6.22;;;;;;;;;;5051477;28;20031;-69
2023/05/31 14:04:20;;;;;;;6.85;4.90;;;;;;;;;;5051742;28;20515;-69
2023/05/31 14:06:47;;;;;;;4.20;3.80;;;;;;;;;;5055120;28;20045;-68
2023/05/31 14:09:13;;;;;;;5.70;3.40;;;;;;;;;;5055608;28;20021;-69
2023/05/31 14:11:39;;;;;;;3.90;3.22;;;;;;;;;;5055597;28;20039;-69
2023/05/31 14:14:06;;;;;;;3.72;2.90;;;;;;;;;;5054111;28;20428;-69
2023/05/31 14:16:34;;;;;;;3.13;2.83;;;;;;;;;;5055761;28;20021;-69
2023/05/31 14:19:00;;;;;;;4.57;3.10;;;;;;;;;;5055212;28;20027;-69
2023/05/31 14:21:28;;;;;;;3.67;3.00;;;;;;;;;;5055082;28;20408;-69
2023/05/31 14:23:54;;;;;;;4.63;3.03;;;;;;;;;;5054993;28;20398;-69
2023/05/31 14:26:21;;;;;;;3.20;2.72;;;;;;;;;;5055234;28;20036;-69
2023/05/31 14:28:47;;;;;;;5.43;2.78;;;;;;;;;;5055234;28;20464;-69
2023/05/31 14:31:13;;;;;;;3.65;2.58;;;;;;;;;;5055434;28;20027;-69
2023/05/31 14:33:40;;;;;;;4.28;3.20;;;;;;;;;;5054946;28;20025;-69
2023/05/31 14:36:06;;;;;;;4.70;3.65;;;;;;;;;;5055237;28;20031;-69
2023/05/31 14:38:32;;;;;;;5.38;4.00;;;;;;;;;;5055476;28;20372;-69